createdAt,value
2018-08-10T00:05:19.175Z,96.20
2018-08-10T00:08:00.562Z,96.70
2018-08-10T00:10:48.987Z,96.50
2018-08-10T00:13:26.275Z,96.40
2018-08-10T00:18:44.369Z,95.80
2018-08-10T00:21:18.868Z,95.80
2018-08-10T00:24:02.784Z,95.80
2018-08-10T00:29:20.555Z,96.10
2018-08-10T00:32:02.326Z,96.40
2018-08-10T00:34:35.673Z,96.60
2018-08-10T00:37:24.689Z,96.80
2018-08-10T00:40:26.267Z,97.00
2018-08-10T00:42:55.028Z,97.00
2018-08-10T00:45:23.773Z,97.50
2018-08-10T00:47:52.644Z,97.20
2018-08-10T00:50:21.377Z,97.10
2018-08-10T00:52:50.267Z,97.00
2018-08-10T00:55:19.740Z,97.20
2018-08-10T00:57:49.239Z,97.20
2018-08-10T01:00:20.541Z,97.10
2018-08-10T01:02:49.393Z,97.40
2018-08-10T01:05:18.259Z,97.50
2018-08-10T01:07:47.084Z,97.40
2018-08-10T01:10:17.492Z,97.50
2018-08-10T01:12:52.427Z,97.30
2018-08-10T01:15:26.152Z,97.10
2018-08-10T01:17:59.792Z,97.00
2018-08-10T01:20:33.197Z,96.90
2018-08-10T01:23:09.466Z,97.10
2018-08-10T01:25:50.435Z,97.10
2018-08-10T01:28:23.477Z,97.10
2018-08-10T01:31:02.088Z,97.20
2018-08-10T01:33:38.568Z,97.30
2018-08-10T01:36:12.507Z,97.40
2018-08-10T01:38:45.002Z,97.60
2018-08-10T01:41:17.686Z,97.50
2018-08-10T01:43:50.334Z,97.70
2018-08-10T01:46:22.874Z,97.60
2018-08-10T01:48:56.106Z,97.70
2018-08-10T01:51:31.178Z,97.90
2018-08-10T01:54:03.167Z,98.10
2018-08-10T01:56:37.328Z,97.80
2018-08-10T01:59:11.543Z,97.80
2018-08-10T02:01:46.056Z,97.80
2018-08-10T02:04:19.137Z,98.10
2018-08-10T02:06:54.077Z,97.90
2018-08-10T02:09:27.843Z,97.80
2018-08-10T02:12:02.443Z,98.00
2018-08-10T02:14:35.244Z,98.00
2018-08-10T02:17:08.569Z,98.30
2018-08-10T02:19:41.363Z,98.60
2018-08-10T02:22:16.746Z,98.80
2018-08-10T02:24:51.500Z,98.80
2018-08-10T02:27:25.715Z,99.10
2018-08-10T02:30:07.497Z,99.10
2018-08-10T02:32:42.572Z,99.10
2018-08-10T02:35:17.924Z,99.20
2018-08-10T02:37:53.525Z,98.90
2018-08-10T02:40:26.276Z,99.10
2018-08-10T02:43:01.461Z,99.00
2018-08-10T02:45:34.001Z,99.00
2018-08-10T02:48:10.691Z,98.80
2018-08-10T02:50:41.309Z,98.70
2018-08-10T02:53:16.000Z,98.90
2018-08-10T02:55:50.014Z,99.00
2018-08-10T02:58:29.500Z,99.10
2018-08-10T03:01:02.462Z,99.20
2018-08-10T03:03:34.745Z,99.40
2018-08-10T03:06:07.683Z,99.30
2018-08-10T03:08:40.406Z,99.40
2018-08-10T03:11:09.166Z,99.40
2018-08-10T03:13:38.250Z,99.50
2018-08-10T03:16:07.052Z,99.50
2018-08-10T03:18:35.791Z,99.40
2018-08-10T03:21:04.717Z,99.60
2018-08-10T03:23:33.521Z,99.30
2018-08-10T03:26:02.289Z,99.40
2018-08-10T03:28:31.095Z,99.50
2018-08-10T03:30:59.889Z,99.50
2018-08-10T03:33:28.676Z,99.60
2018-08-10T03:35:57.507Z,99.60
2018-08-10T03:38:26.466Z,99.60
2018-08-10T03:40:55.272Z,99.80
2018-08-10T03:43:24.076Z,99.70
2018-08-10T03:45:52.822Z,99.90
2018-08-10T03:48:21.597Z,99.80
2018-08-10T03:50:50.438Z,99.70
2018-08-10T03:53:19.205Z,99.60
2018-08-10T03:55:48.033Z,99.60
2018-08-10T03:58:16.825Z,99.60
2018-08-10T04:00:45.565Z,99.70
2018-08-10T04:03:14.393Z,99.80
2018-08-10T04:05:43.173Z,99.90
2018-08-10T04:08:11.885Z,99.90
2018-08-10T04:10:40.644Z,99.90
2018-08-10T04:13:09.388Z,99.90
2018-08-10T04:15:38.164Z,99.80
2018-08-10T04:18:06.962Z,99.80
2018-08-10T04:20:35.743Z,99.90
2018-08-10T04:23:04.468Z,99.90
2018-08-10T04:25:33.153Z,99.90
2018-08-10T04:28:01.865Z,99.90
2018-08-10T04:30:30.548Z,99.90
2018-08-10T04:32:59.349Z,99.90
2018-08-10T04:35:28.108Z,99.90
2018-08-10T04:37:56.956Z,99.90
2018-08-10T04:40:25.697Z,99.90
2018-08-10T04:42:54.519Z,99.90
2018-08-10T04:45:23.353Z,99.90
2018-08-10T04:47:52.209Z,99.90
2018-08-10T04:50:20.957Z,99.90
2018-08-10T04:52:49.801Z,99.90
2018-08-10T04:55:18.603Z,99.90
2018-08-10T04:57:47.363Z,99.90
2018-08-10T05:00:16.295Z,99.90
2018-08-10T05:02:45.015Z,99.90
2018-08-10T05:05:13.839Z,99.90
2018-08-10T05:07:42.968Z,99.90
2018-08-10T05:10:11.785Z,99.90
2018-08-10T05:12:40.941Z,99.90
2018-08-10T05:15:10.649Z,99.90
2018-08-10T05:17:39.812Z,99.90
2018-08-10T05:20:09.713Z,99.90
2018-08-10T05:22:38.872Z,99.90
2018-08-10T05:25:07.685Z,99.90
2018-08-10T05:27:36.590Z,99.90
2018-08-10T05:30:06.936Z,99.90
2018-08-10T05:32:35.659Z,99.90
2018-08-10T05:35:05.948Z,99.90
2018-08-10T05:37:34.836Z,99.90
2018-08-10T05:40:03.642Z,99.90
2018-08-10T05:42:32.445Z,99.90
2018-08-10T05:45:01.298Z,99.90
2018-08-10T05:47:30.097Z,99.90
2018-08-10T05:49:58.837Z,99.90
2018-08-10T05:52:27.663Z,99.90
2018-08-10T05:54:56.421Z,99.90
2018-08-10T05:57:25.265Z,99.90
2018-08-10T05:59:54.002Z,99.90
2018-08-10T06:02:22.834Z,99.90
2018-08-10T06:04:51.546Z,99.90
2018-08-10T06:07:20.496Z,99.90
2018-08-10T06:09:49.273Z,99.90
2018-08-10T06:12:18.228Z,99.90
2018-08-10T06:14:46.956Z,99.80
2018-08-10T06:17:15.770Z,99.40
2018-08-10T06:19:44.506Z,99.30
2018-08-10T06:22:13.363Z,99.30
2018-08-10T06:24:42.168Z,99.30
2018-08-10T06:27:10.939Z,98.80
2018-08-10T06:29:39.782Z,98.70
2018-08-10T06:32:08.560Z,98.70
2018-08-10T06:34:37.424Z,98.10
2018-08-10T06:37:06.465Z,98.10
2018-08-10T06:39:35.258Z,98.00
2018-08-10T06:42:04.976Z,97.40
2018-08-10T06:44:34.705Z,97.00
2018-08-10T06:47:03.598Z,96.70
2018-08-10T06:49:32.438Z,96.50
2018-08-10T06:52:01.279Z,96.70
2018-08-10T06:54:30.032Z,96.30
2018-08-10T06:56:58.870Z,95.80
2018-08-10T06:59:27.725Z,95.60
2018-08-10T07:01:56.506Z,95.40
2018-08-10T07:04:25.255Z,95.40
2018-08-10T07:06:54.826Z,95.50
2018-08-10T07:09:23.581Z,95.40
2018-08-10T07:11:52.567Z,95.20
2018-08-10T07:14:21.369Z,94.80
2018-08-10T07:16:50.296Z,94.50
2018-08-10T07:19:19.230Z,94.60
2018-08-10T07:21:48.007Z,94.60
2018-08-10T07:24:17.122Z,95.10
2018-08-10T07:26:45.875Z,95.40
2018-08-10T07:29:21.493Z,95.60
2018-08-10T07:31:50.320Z,94.60
2018-08-10T07:34:19.152Z,94.70
2018-08-10T07:36:48.047Z,94.70
2018-08-10T07:39:16.955Z,94.60
2018-08-10T07:41:45.835Z,93.80
2018-08-10T07:44:14.583Z,93.30
2018-08-10T07:46:43.399Z,93.10
2018-08-10T07:49:12.180Z,92.80
2018-08-10T07:51:41.064Z,92.90
2018-08-10T07:54:09.965Z,93.50
2018-08-10T07:56:38.742Z,91.70
2018-08-10T07:59:08.044Z,91.60
2018-08-10T08:01:36.929Z,91.40
2018-08-10T08:04:05.973Z,91.20
2018-08-10T08:06:35.012Z,91.30
2018-08-10T08:09:04.783Z,91.70
2018-08-10T08:11:34.052Z,92.50
2018-08-10T08:14:02.891Z,90.80
2018-08-10T08:16:31.727Z,90.30
2018-08-10T08:19:01.028Z,89.60
2018-08-10T08:21:29.865Z,88.40
2018-08-10T08:23:58.725Z,88.50
2018-08-10T08:26:27.559Z,87.50
2018-08-10T08:28:56.410Z,87.10
2018-08-10T08:31:25.181Z,86.20
2018-08-10T08:34:03.852Z,85.90
2018-08-10T08:36:32.713Z,86.30
2018-08-10T08:39:12.791Z,84.00
2018-08-10T08:41:41.555Z,82.10
2018-08-10T08:44:31.817Z,82.60
2018-08-10T08:47:01.216Z,83.10
2018-08-10T08:49:30.147Z,81.40
2018-08-10T08:51:58.969Z,81.40
2018-08-10T08:55:05.633Z,83.10
2018-08-10T08:57:35.610Z,83.50
2018-08-10T09:00:09.888Z,81.70
2018-08-10T09:02:38.724Z,82.10
2018-08-10T09:05:09.020Z,79.70
2018-08-10T09:07:38.363Z,79.10
2018-08-10T09:10:10.514Z,78.50
2018-08-10T09:12:39.307Z,77.50
2018-08-10T09:15:10.234Z,75.90
2018-08-10T09:17:39.733Z,76.70
2018-08-10T09:20:09.361Z,74.00
2018-08-10T09:22:38.179Z,72.50
2018-08-10T09:25:09.571Z,72.60
2018-08-10T09:27:38.427Z,72.40
2018-08-10T09:30:08.712Z,72.80
2018-08-10T09:32:37.498Z,73.20
2018-08-10T09:35:07.946Z,71.00
2018-08-10T09:37:36.841Z,71.00
2018-08-10T09:40:11.026Z,69.80
2018-08-10T09:42:40.230Z,69.30
2018-08-10T09:45:09.923Z,65.60
2018-08-10T09:47:38.743Z,64.90
2018-08-10T09:50:08.994Z,63.60
2018-08-10T09:52:37.705Z,63.60
2018-08-10T09:55:23.930Z,64.70
2018-08-10T09:57:55.951Z,66.70
2018-08-10T10:00:30.051Z,66.50
2018-08-10T10:03:04.053Z,67.60
2018-08-10T10:05:32.937Z,66.30
2018-08-10T10:08:01.723Z,65.70
2018-08-10T10:10:31.449Z,62.60
2018-08-10T10:13:00.305Z,61.80
2018-08-10T10:15:29.076Z,64.20
2018-08-10T10:17:57.919Z,61.70
2018-08-10T10:20:26.794Z,61.10
2018-08-10T10:22:55.537Z,62.10
2018-08-10T10:25:24.576Z,60.80
2018-08-10T10:27:53.548Z,59.10
2018-08-10T10:30:22.410Z,56.60
2018-08-10T10:32:51.248Z,56.90
2018-08-10T10:35:20.694Z,57.00
2018-08-10T10:37:49.460Z,56.50
2018-08-10T10:40:18.243Z,53.90
2018-08-10T10:42:47.053Z,55.30
2018-08-10T10:45:16.553Z,53.40
2018-08-10T10:47:46.454Z,55.00
2018-08-10T10:50:15.911Z,56.20
2018-08-10T10:52:44.841Z,56.00
2018-08-10T10:55:13.920Z,55.20
2018-08-10T10:57:43.425Z,56.30
2018-08-10T11:00:34.402Z,53.90
2018-08-10T11:03:03.226Z,55.60
2018-08-10T11:05:32.220Z,53.90
2018-08-10T11:08:01.104Z,51.30
2018-08-10T11:10:29.912Z,51.90
2018-08-10T11:12:58.761Z,54.30
2018-08-10T11:15:27.709Z,54.20
2018-08-10T11:17:56.683Z,55.10
2018-08-10T11:20:25.578Z,53.70
2018-08-10T11:22:54.528Z,52.30
2018-08-10T11:25:23.506Z,54.50
2018-08-10T11:27:52.153Z,50.40
2018-08-10T11:30:20.920Z,50.90
2018-08-10T11:32:49.695Z,51.60
2018-08-10T11:35:18.429Z,50.30
2018-08-10T11:37:47.368Z,47.50
2018-08-10T11:40:16.368Z,48.40
2018-08-10T11:42:45.248Z,48.20
2018-08-10T11:45:16.749Z,49.20
2018-08-10T11:47:45.641Z,48.40
2018-08-10T11:50:14.501Z,46.90
2018-08-10T11:52:43.849Z,48.60
2018-08-10T11:55:14.167Z,47.50
2018-08-10T11:57:43.488Z,48.50
2018-08-10T12:00:13.797Z,47.90
2018-08-10T12:02:42.934Z,48.50
2018-08-10T12:05:12.953Z,46.90
2018-08-10T12:07:41.874Z,46.70
2018-08-10T12:10:10.675Z,48.10
2018-08-10T12:12:39.860Z,48.80
2018-08-10T12:15:10.573Z,49.10
2018-08-10T12:17:40.256Z,49.90
2018-08-10T12:20:10.104Z,50.20
2018-08-10T12:22:39.777Z,50.80
2018-08-10T12:25:08.946Z,50.90
2018-08-10T12:27:37.742Z,47.90
2018-08-10T12:30:07.783Z,46.80
2018-08-10T12:32:36.642Z,47.10
2018-08-10T12:35:05.735Z,46.20
2018-08-10T12:37:34.573Z,45.20
2018-08-10T12:40:03.439Z,45.00
2018-08-10T12:42:32.304Z,45.70
2018-08-10T12:45:01.135Z,45.80
2018-08-10T12:47:29.974Z,46.00
2018-08-10T12:49:58.996Z,45.80
2018-08-10T12:52:27.745Z,45.80
2018-08-10T12:54:56.753Z,46.00
2018-08-10T12:57:25.583Z,46.90
2018-08-10T12:59:54.412Z,46.00
2018-08-10T13:02:23.242Z,47.40
2018-08-10T13:04:52.110Z,49.00
2018-08-10T13:07:21.451Z,47.70
2018-08-10T13:09:51.529Z,46.80
2018-08-10T13:12:20.478Z,46.10
2018-08-10T13:14:49.311Z,45.30
2018-08-10T13:17:18.223Z,46.40
2018-08-10T13:19:47.000Z,46.50
2018-08-10T13:22:15.790Z,46.10
2018-08-10T13:24:44.494Z,46.00
2018-08-10T13:27:13.346Z,46.10
2018-08-10T13:29:42.179Z,46.50
2018-08-10T13:32:10.866Z,46.00
2018-08-10T13:34:41.925Z,45.30
2018-08-10T13:37:11.288Z,45.10
2018-08-10T13:39:40.046Z,46.50
2018-08-10T13:42:08.955Z,46.70
2018-08-10T13:44:37.956Z,44.80
2018-08-10T13:47:06.771Z,44.40
2018-08-10T13:49:35.678Z,43.80
2018-08-10T13:52:04.683Z,44.90
2018-08-10T13:54:33.801Z,44.20
2018-08-10T13:57:02.713Z,44.50
2018-08-10T13:59:31.516Z,44.50
2018-08-10T14:02:00.260Z,46.10
2018-08-10T14:04:30.737Z,45.00
2018-08-10T14:06:59.547Z,45.80
2018-08-10T14:09:28.362Z,45.60
2018-08-10T14:11:57.213Z,45.70
2018-08-10T14:14:25.921Z,44.30
2018-08-10T14:16:54.905Z,44.40
2018-08-10T14:19:23.643Z,44.40
2018-08-10T14:21:52.506Z,46.10
2018-08-10T14:24:21.364Z,44.20
2018-08-10T14:26:50.141Z,43.80
2018-08-10T14:29:19.349Z,43.30
2018-08-10T14:31:48.177Z,44.30
2018-08-10T14:34:17.128Z,44.20
2018-08-10T14:36:45.927Z,43.60
2018-08-10T14:39:14.807Z,44.60
2018-08-10T14:41:43.524Z,45.10
2018-08-10T14:44:12.349Z,43.00
2018-08-10T14:46:41.256Z,43.90
2018-08-10T14:49:10.052Z,43.20
2018-08-10T14:51:45.410Z,43.10
2018-08-10T14:54:48.552Z,41.20
2018-08-10T14:57:17.313Z,42.40
2018-08-10T14:59:46.140Z,43.40
2018-08-10T15:02:14.885Z,44.20
2018-08-10T15:04:43.608Z,43.60
2018-08-10T15:07:12.385Z,43.60
2018-08-10T15:09:41.883Z,42.90
2018-08-10T15:12:10.779Z,42.20
2018-08-10T15:14:39.627Z,42.10
2018-08-10T15:17:08.428Z,43.00
2018-08-10T15:19:37.187Z,42.50
2018-08-10T15:22:06.114Z,40.80
2018-08-10T15:24:34.928Z,41.80
2018-08-10T15:27:03.712Z,43.30
2018-08-10T15:29:32.498Z,41.90
2018-08-10T15:32:01.235Z,42.90
2018-08-10T15:34:30.021Z,43.10
2018-08-10T15:36:58.819Z,42.50
2018-08-10T15:39:28.058Z,42.50
2018-08-10T15:41:57.061Z,41.00
2018-08-10T15:44:25.789Z,39.30
2018-08-10T15:46:54.706Z,40.00
2018-08-10T15:49:23.486Z,41.00
2018-08-10T15:51:52.202Z,40.00
2018-08-10T15:54:21.038Z,41.20
2018-08-10T15:56:49.782Z,39.90
2018-08-10T15:59:18.494Z,39.40
2018-08-10T16:01:47.272Z,40.50
2018-08-10T16:04:16.077Z,39.30
2018-08-10T16:06:44.822Z,39.20
2018-08-10T16:09:13.734Z,39.80
2018-08-10T16:11:42.424Z,40.70
2018-08-10T16:14:11.813Z,39.40
2018-08-10T16:16:40.539Z,40.30
2018-08-10T16:19:09.289Z,40.00
2018-08-10T16:21:38.027Z,39.30
2018-08-10T16:24:07.000Z,39.80
2018-08-10T16:26:35.858Z,39.20
2018-08-10T16:29:10.426Z,40.60
2018-08-10T16:31:39.265Z,38.50
2018-08-10T16:34:08.193Z,39.40
2018-08-10T16:36:37.009Z,39.70
2018-08-10T16:39:08.912Z,39.50
2018-08-10T16:41:37.757Z,39.00
2018-08-10T16:44:06.607Z,38.80
2018-08-10T16:46:35.535Z,38.40
2018-08-10T16:49:04.328Z,39.50
2018-08-10T16:51:33.026Z,38.80
2018-08-10T16:54:01.884Z,38.10
2018-08-10T16:56:30.670Z,38.50
2018-08-10T16:58:59.523Z,39.30
2018-08-10T17:01:28.290Z,39.00
2018-08-10T17:03:57.112Z,39.50
2018-08-10T17:06:25.841Z,38.30
2018-08-10T17:08:54.702Z,37.90
2018-08-10T17:11:23.556Z,38.60
2018-08-10T17:13:52.286Z,38.20
2018-08-10T17:16:21.498Z,38.50
2018-08-10T17:18:50.243Z,39.20
2018-08-10T17:21:19.078Z,39.90
2018-08-10T17:23:48.032Z,39.00
2018-08-10T17:26:16.856Z,39.30
2018-08-10T17:28:45.886Z,39.80
2018-08-10T17:31:14.752Z,39.50
2018-08-10T17:33:43.468Z,39.70
2018-08-10T17:36:12.205Z,39.90
2018-08-10T17:38:40.941Z,39.80
2018-08-10T17:41:09.706Z,40.10
2018-08-10T17:43:38.534Z,40.50
2018-08-10T17:46:07.509Z,40.50
2018-08-10T17:48:36.292Z,40.50
2018-08-10T17:51:05.219Z,40.80
2018-08-10T17:53:33.999Z,40.80
2018-08-10T17:56:02.891Z,41.00
2018-08-10T17:58:31.704Z,41.20
2018-08-10T18:01:05.170Z,41.10
2018-08-10T18:03:33.893Z,40.70
2018-08-10T18:06:02.655Z,41.00
2018-08-10T18:08:31.417Z,41.40
2018-08-10T18:11:00.174Z,41.60
2018-08-10T18:13:28.938Z,41.50
2018-08-10T18:15:57.909Z,41.70
2018-08-10T18:18:26.661Z,42.20
2018-08-10T18:20:55.433Z,41.90
2018-08-10T18:23:24.245Z,42.40
2018-08-10T18:25:53.104Z,42.20
2018-08-10T18:28:21.907Z,43.30
2018-08-10T18:30:50.632Z,44.10
2018-08-10T18:33:19.442Z,44.50
2018-08-10T18:35:48.277Z,45.00
2018-08-10T18:38:17.308Z,45.60
2018-08-10T18:40:46.265Z,45.70
2018-08-10T18:43:15.232Z,45.20
2018-08-10T18:45:44.029Z,46.20
2018-08-10T18:48:12.817Z,46.10
2018-08-10T18:50:41.791Z,46.40
2018-08-10T18:53:10.493Z,46.70
2018-08-10T18:55:39.216Z,46.60
2018-08-10T18:58:08.080Z,47.40
2018-08-10T19:00:41.997Z,48.10
2018-08-10T19:03:10.762Z,49.00
2018-08-10T19:05:39.586Z,50.00
2018-08-10T19:08:08.355Z,50.40
2018-08-10T19:10:37.300Z,51.20
2018-08-10T19:13:06.022Z,51.60
2018-08-10T19:15:34.821Z,51.70
2018-08-10T19:18:03.878Z,52.60
2018-08-10T19:20:32.592Z,53.20
2018-08-10T19:23:01.382Z,53.80
2018-08-10T19:25:30.292Z,54.20
2018-08-10T19:27:59.089Z,54.90
2018-08-10T19:30:27.853Z,55.80
2018-08-10T19:32:56.726Z,56.00
2018-08-10T19:35:25.475Z,55.80
2018-08-10T19:37:54.238Z,56.30
2018-08-10T19:40:22.968Z,56.70
2018-08-10T19:42:51.785Z,57.20
2018-08-10T19:45:20.629Z,57.70
2018-08-10T19:47:49.390Z,58.10
2018-08-10T19:50:22.227Z,58.30
2018-08-10T19:52:51.238Z,58.50
2018-08-10T19:55:20.125Z,59.00
2018-08-10T19:57:48.889Z,59.40
2018-08-10T20:00:18.477Z,59.60
2018-08-10T20:02:53.073Z,59.50
2018-08-10T20:05:25.158Z,60.50
2018-08-10T20:07:54.056Z,60.20
2018-08-10T20:10:22.878Z,60.50
2018-08-10T20:12:51.665Z,60.80
2018-08-10T20:15:20.534Z,60.80
2018-08-10T20:17:49.193Z,61.40
2018-08-10T20:20:19.208Z,62.20
2018-08-10T20:22:48.201Z,62.70
2018-08-10T20:25:17.162Z,62.10
2018-08-10T20:27:46.006Z,62.30
2018-08-10T20:30:16.509Z,62.70
2018-08-10T20:32:45.629Z,63.30
2018-08-10T20:35:16.274Z,63.50
2018-08-10T20:37:45.035Z,63.00
2018-08-10T20:40:15.734Z,63.00
2018-08-10T20:42:44.561Z,62.60
2018-08-10T20:45:13.601Z,62.80
2018-08-10T20:47:42.709Z,63.20
2018-08-10T20:50:15.059Z,63.20
2018-08-10T20:52:44.507Z,63.20
2018-08-10T20:55:13.444Z,64.00
2018-08-10T20:57:42.675Z,63.70
2018-08-10T21:00:12.069Z,64.10
2018-08-10T21:02:42.393Z,63.70
2018-08-10T21:05:11.508Z,63.50
2018-08-10T21:07:40.318Z,63.50
2018-08-10T21:10:11.962Z,64.60
2018-08-10T21:12:41.387Z,65.10
2018-08-10T21:15:11.594Z,65.60
2018-08-10T21:17:41.347Z,65.70
2018-08-10T21:20:11.959Z,66.50
2018-08-10T21:22:40.739Z,66.70
2018-08-10T21:25:10.358Z,67.20
2018-08-10T21:27:39.756Z,67.20
2018-08-10T21:30:11.542Z,67.20
2018-08-10T21:32:40.367Z,67.00
2018-08-10T21:35:09.278Z,67.40
2018-08-10T21:37:38.213Z,68.10
2018-08-10T21:40:08.201Z,68.00
2018-08-10T21:42:37.045Z,68.40
2018-08-10T21:45:06.378Z,68.90
2018-08-10T21:47:35.183Z,69.50
2018-08-10T21:50:04.134Z,69.70
2018-08-10T21:52:32.846Z,70.00
2018-08-10T21:55:01.652Z,70.20
2018-08-10T21:57:30.510Z,70.70
2018-08-10T21:59:59.287Z,71.80
2018-08-10T22:02:28.183Z,72.40
2018-08-10T22:04:57.063Z,72.90
2018-08-10T22:07:25.852Z,73.40
2018-08-10T22:09:54.638Z,74.20
2018-08-10T22:12:23.437Z,74.60
2018-08-10T22:14:57.542Z,75.00
2018-08-10T22:17:31.478Z,75.00
2018-08-10T22:20:01.428Z,75.30
2018-08-10T22:22:31.575Z,75.70
2018-08-10T22:25:00.393Z,76.20
2018-08-10T22:27:29.209Z,76.60
2018-08-10T22:29:58.088Z,76.70
2018-08-10T22:32:26.880Z,75.80
2018-08-10T22:34:55.620Z,76.70
2018-08-10T22:37:24.352Z,76.70
2018-08-10T22:39:53.202Z,76.50
2018-08-10T22:42:21.939Z,77.40
2018-08-10T22:44:50.778Z,78.00
2018-08-10T22:47:19.602Z,79.10
2018-08-10T22:49:48.479Z,79.60
2018-08-10T22:52:17.174Z,79.10
2018-08-10T22:54:46.133Z,78.90
2018-08-10T22:57:15.029Z,79.70
2018-08-10T22:59:43.740Z,79.90
2018-08-10T23:02:12.477Z,81.20
2018-08-10T23:04:41.324Z,81.70
2018-08-10T23:07:10.127Z,84.50
2018-08-10T23:09:38.908Z,83.70
2018-08-10T23:12:07.718Z,83.90
2018-08-10T23:14:36.563Z,84.70
2018-08-10T23:17:05.332Z,85.20
2018-08-10T23:19:34.220Z,85.60
2018-08-10T23:22:02.997Z,86.20
2018-08-10T23:24:31.808Z,87.20
2018-08-10T23:27:00.501Z,87.50
2018-08-10T23:29:29.180Z,87.60
2018-08-10T23:31:57.995Z,87.70
2018-08-10T23:34:26.765Z,87.70
2018-08-10T23:36:55.494Z,88.00
2018-08-10T23:39:24.349Z,88.70
2018-08-10T23:41:53.127Z,89.00
2018-08-10T23:44:21.926Z,90.10
2018-08-10T23:46:50.685Z,90.50
2018-08-10T23:49:19.430Z,90.80
2018-08-10T23:51:48.255Z,90.90
2018-08-10T23:54:17.019Z,91.00
2018-08-10T23:56:45.760Z,91.50
2018-08-10T23:59:14.564Z,91.60
